createdAt,value
2019-02-12T00:00:06.062Z,6.60
2019-02-12T00:02:34.518Z,6.61
2019-02-12T00:05:04.975Z,6.63
2019-02-12T00:07:33.031Z,6.62
2019-02-12T00:10:01.082Z,6.62
2019-02-12T00:12:29.154Z,6.60
2019-02-12T00:14:57.224Z,6.59
2019-02-12T00:17:25.293Z,6.57
2019-02-12T00:19:53.399Z,6.54
2019-02-12T00:22:21.412Z,6.48
2019-02-12T00:24:49.528Z,6.46
2019-02-12T00:27:18.091Z,6.43
2019-02-12T00:29:48.572Z,6.44
2019-02-12T00:32:16.696Z,6.45
2019-02-12T00:34:44.791Z,6.44
2019-02-12T00:37:12.829Z,6.46
2019-02-12T00:39:41.184Z,6.46
2019-02-12T00:42:10.600Z,6.48
2019-02-12T00:44:38.678Z,6.48
2019-02-12T00:47:06.723Z,6.47
2019-02-12T00:49:34.788Z,6.47
2019-02-12T00:52:02.842Z,6.47
2019-02-12T00:54:30.871Z,6.46
2019-02-12T00:56:58.944Z,6.44
2019-02-12T00:59:26.992Z,6.46
2019-02-12T01:01:55.366Z,6.46
2019-02-12T01:04:23.704Z,6.46
2019-02-12T01:06:51.801Z,6.46
2019-02-12T01:09:19.841Z,6.47
2019-02-12T01:11:47.913Z,6.49
2019-02-12T01:14:16.548Z,6.48
2019-02-12T01:16:44.629Z,6.49
2019-02-12T01:19:13.194Z,6.50
2019-02-12T01:21:41.284Z,6.52
2019-02-12T01:24:11.897Z,6.54
2019-02-12T01:26:39.994Z,6.59
2019-02-12T01:29:08.056Z,6.59
2019-02-12T01:31:36.584Z,6.59
2019-02-12T01:34:04.961Z,6.61
2019-02-12T01:36:33.055Z,6.62
2019-02-12T01:39:01.112Z,6.62
2019-02-12T01:41:31.385Z,6.61
2019-02-12T01:43:59.403Z,6.65
2019-02-12T01:46:27.455Z,6.66
2019-02-12T01:48:55.484Z,6.68
2019-02-12T01:51:23.538Z,6.70
2019-02-12T01:53:52.037Z,6.73
2019-02-12T01:56:20.111Z,6.75
2019-02-12T01:58:48.485Z,6.77
2019-02-12T02:01:16.554Z,6.76
2019-02-12T02:03:44.663Z,6.78
2019-02-12T02:06:12.767Z,6.77
2019-02-12T02:08:40.788Z,6.76
2019-02-12T02:11:08.866Z,6.77
2019-02-12T02:13:36.940Z,6.77
2019-02-12T02:16:05.024Z,6.77
2019-02-12T02:18:33.045Z,6.77
2019-02-12T02:21:01.368Z,6.77
2019-02-12T02:23:29.385Z,6.78
2019-02-12T02:25:57.498Z,6.77
2019-02-12T02:28:26.323Z,6.77
2019-02-12T02:30:54.404Z,6.78
2019-02-12T02:33:22.469Z,6.76
2019-02-12T02:35:50.975Z,6.77
2019-02-12T02:38:19.046Z,6.78
2019-02-12T02:40:47.131Z,6.76
2019-02-12T02:43:15.199Z,6.77
2019-02-12T02:45:43.225Z,6.76
2019-02-12T02:48:11.370Z,6.77
2019-02-12T02:50:39.731Z,6.76
2019-02-12T02:53:07.846Z,6.76
2019-02-12T02:55:35.895Z,6.76
2019-02-12T02:58:03.956Z,6.76
2019-02-12T03:00:32.097Z,6.76
2019-02-12T03:03:00.238Z,6.76
2019-02-12T03:05:28.466Z,6.75
2019-02-12T03:07:56.968Z,6.74
2019-02-12T03:10:25.024Z,6.73
2019-02-12T03:12:53.109Z,6.74
2019-02-12T03:15:21.155Z,6.73
2019-02-12T03:17:49.308Z,6.72
2019-02-12T03:20:17.368Z,6.72
2019-02-12T03:22:45.871Z,6.71
2019-02-12T03:25:13.909Z,6.69
2019-02-12T03:27:42.049Z,6.67
2019-02-12T03:30:10.635Z,6.66
2019-02-12T03:32:39.023Z,6.64
2019-02-12T03:35:07.534Z,6.64
2019-02-12T03:37:35.641Z,6.62
2019-02-12T03:40:05.558Z,6.62
2019-02-12T03:42:34.486Z,6.62
2019-02-12T03:45:02.894Z,6.59
2019-02-12T03:47:31.302Z,6.50
2019-02-12T03:49:59.417Z,6.46
2019-02-12T03:52:27.503Z,6.43
2019-02-12T03:54:55.890Z,6.42
2019-02-12T03:57:24.129Z,6.41
2019-02-12T03:59:52.580Z,6.43
2019-02-12T04:02:20.654Z,6.42
2019-02-12T04:04:48.754Z,6.40
2019-02-12T04:07:16.832Z,6.39
2019-02-12T04:09:44.948Z,6.37
2019-02-12T04:12:12.998Z,6.37
2019-02-12T04:14:41.091Z,6.38
2019-02-12T04:17:09.159Z,6.38
2019-02-12T04:19:37.230Z,6.38
2019-02-12T04:22:05.334Z,6.40
2019-02-12T04:24:33.837Z,6.40
2019-02-12T04:27:02.787Z,6.42
2019-02-12T04:29:32.266Z,6.41
2019-02-12T04:32:00.359Z,6.38
2019-02-12T04:34:28.508Z,6.36
2019-02-12T04:36:56.598Z,6.35
2019-02-12T04:39:24.694Z,6.35
2019-02-12T04:41:52.760Z,6.34
2019-02-12T04:44:21.006Z,6.34
2019-02-12T04:46:49.058Z,6.34
2019-02-12T04:49:17.172Z,6.33
2019-02-12T04:51:45.277Z,6.32
2019-02-12T04:54:13.369Z,6.28
2019-02-12T04:56:41.456Z,6.22
2019-02-12T04:59:09.897Z,6.21
2019-02-12T05:01:38.117Z,6.20
2019-02-12T05:04:08.373Z,6.19
2019-02-12T05:06:37.164Z,6.17
2019-02-12T05:09:19.530Z,6.15
2019-02-12T05:12:02.731Z,6.13
2019-02-12T05:14:30.820Z,6.10
2019-02-12T05:16:59.294Z,6.09
2019-02-12T05:19:27.397Z,6.07
2019-02-12T05:21:55.505Z,6.07
2019-02-12T05:24:36.632Z,6.08
2019-02-12T05:27:05.105Z,6.07
2019-02-12T05:29:33.507Z,6.07
2019-02-12T05:32:01.588Z,6.06
2019-02-12T05:34:30.037Z,6.05
2019-02-12T05:36:59.798Z,6.04
2019-02-12T05:39:28.044Z,5.98
2019-02-12T05:41:56.188Z,5.96
2019-02-12T05:44:24.262Z,5.95
2019-02-12T05:46:52.585Z,5.95
2019-02-12T05:49:22.418Z,5.95
2019-02-12T05:51:50.462Z,5.95
2019-02-12T05:54:18.525Z,5.94
2019-02-12T05:56:46.597Z,5.93
2019-02-12T05:59:14.679Z,5.92
2019-02-12T06:01:42.770Z,5.91
2019-02-12T06:04:10.888Z,5.89
2019-02-12T06:06:38.957Z,5.89
2019-02-12T06:09:07.155Z,5.90
2019-02-12T06:11:35.539Z,5.88
2019-02-12T06:14:03.630Z,5.87
2019-02-12T06:16:31.695Z,5.82
2019-02-12T06:18:59.739Z,5.81
2019-02-12T06:21:27.798Z,5.80
2019-02-12T06:23:55.867Z,5.78
2019-02-12T06:26:24.347Z,5.73
2019-02-12T06:28:52.429Z,5.70
2019-02-12T06:31:20.490Z,5.67
2019-02-12T06:33:48.930Z,5.65
2019-02-12T06:36:16.996Z,5.63
2019-02-12T06:38:45.428Z,5.61
2019-02-12T06:41:13.823Z,5.59
2019-02-12T06:43:41.895Z,5.53
2019-02-12T06:46:09.966Z,5.50
2019-02-12T06:48:38.227Z,5.48
2019-02-12T06:51:06.307Z,5.46
2019-02-12T06:53:35.489Z,5.46
2019-02-12T06:56:03.587Z,5.46
2019-02-12T06:58:32.331Z,5.48
2019-02-12T07:01:00.400Z,5.49
2019-02-12T07:04:10.817Z,5.48
2019-02-12T07:07:47.504Z,5.48
2019-02-12T07:10:32.214Z,5.45
2019-02-12T07:13:36.793Z,5.41
2019-02-12T07:16:47.447Z,5.42
2019-02-12T07:20:01.327Z,5.43
2019-02-12T07:23:35.716Z,5.41
2019-02-12T07:26:54.044Z,5.38
2019-02-12T07:30:01.129Z,5.34
2019-02-12T07:32:46.068Z,5.34
2019-02-12T07:36:15.472Z,5.34
2019-02-12T07:39:25.306Z,5.38
2019-02-12T07:42:51.378Z,5.40
2019-02-12T07:46:19.609Z,5.41
2019-02-12T07:49:29.119Z,5.45
2019-02-12T07:52:44.712Z,5.45
2019-02-12T07:56:19.245Z,5.47
2019-02-12T07:59:31.766Z,5.48
2019-02-12T08:03:13.211Z,5.44
2019-02-12T08:06:54.647Z,5.45
2019-02-12T08:10:29.448Z,5.47
2019-02-12T08:13:51.602Z,5.50
2019-02-12T08:16:46.457Z,5.57
2019-02-12T08:20:34.078Z,5.65
2019-02-12T08:24:08.706Z,5.77
2019-02-12T08:27:36.885Z,5.84
2019-02-12T08:30:41.272Z,5.89
2019-02-12T08:34:01.729Z,5.88
2019-02-12T08:37:10.009Z,5.89
2019-02-12T08:40:16.527Z,5.92
2019-02-12T08:43:24.680Z,5.98
2019-02-12T08:46:54.313Z,6.03
2019-02-12T08:49:49.282Z,6.05
2019-02-12T08:53:24.708Z,6.06
2019-02-12T08:56:22.238Z,6.09
2019-02-12T08:59:47.238Z,6.13
2019-02-12T09:03:09.191Z,6.15
2019-02-12T09:06:39.027Z,6.15
2019-02-12T09:10:02.020Z,6.14
2019-02-12T09:12:55.878Z,6.15
2019-02-12T09:16:37.948Z,6.23
2019-02-12T09:20:17.387Z,6.33
2019-02-12T09:24:03.456Z,6.49
2019-02-12T09:27:14.489Z,6.60
2019-02-12T09:30:27.754Z,6.68
2019-02-12T09:33:28.487Z,6.81
2019-02-12T09:36:48.764Z,6.92
2019-02-12T09:40:24.242Z,7.01
2019-02-12T09:44:01.487Z,7.13
2019-02-12T09:47:46.295Z,7.24
2019-02-12T09:51:20.501Z,7.31
2019-02-12T09:55:01.492Z,7.34
2019-02-12T09:58:30.131Z,7.44
2019-02-12T10:01:19.801Z,7.61
2019-02-12T10:04:28.654Z,7.80
2019-02-12T10:07:59.008Z,7.90
2019-02-12T10:11:47.130Z,8.04
2019-02-12T10:15:10.185Z,8.20
2019-02-12T10:18:52.456Z,8.39
2019-02-12T10:22:43.167Z,8.59
2019-02-12T10:25:40.321Z,8.82
2019-02-12T10:29:21.758Z,9.07
2019-02-12T10:31:49.431Z,9.32
2019-02-12T10:34:17.464Z,9.64
2019-02-12T10:36:45.507Z,9.85
2019-02-12T10:39:15.054Z,10.02
2019-02-12T10:41:43.128Z,10.19
2019-02-12T10:44:11.640Z,10.34
2019-02-12T10:46:40.878Z,10.57
2019-02-12T10:49:09.282Z,10.80
2019-02-12T10:51:37.376Z,11.02
2019-02-12T10:54:05.740Z,11.21
2019-02-12T10:56:34.162Z,11.33
2019-02-12T10:59:02.231Z,11.43
2019-02-12T11:01:30.283Z,11.48
2019-02-12T11:03:59.062Z,11.61
2019-02-12T11:06:27.201Z,11.71
2019-02-12T11:08:55.248Z,11.79
2019-02-12T11:11:23.413Z,11.90
2019-02-12T11:13:51.538Z,11.96
2019-02-12T11:16:19.621Z,11.99
2019-02-12T11:18:48.047Z,12.04
2019-02-12T11:21:16.154Z,12.13
2019-02-12T11:23:44.203Z,12.24
2019-02-12T11:26:12.295Z,12.36
2019-02-12T11:28:41.181Z,12.45
2019-02-12T11:31:09.243Z,12.54
2019-02-12T11:33:37.500Z,12.61
2019-02-12T11:36:05.680Z,12.62
2019-02-12T11:38:34.294Z,12.63
2019-02-12T11:41:02.381Z,12.69
2019-02-12T11:43:30.775Z,12.74
2019-02-12T11:45:58.839Z,12.80
2019-02-12T11:48:26.878Z,12.87
2019-02-12T11:50:54.945Z,12.90
2019-02-12T11:53:23.854Z,12.92
2019-02-12T11:55:51.932Z,12.99
2019-02-12T11:58:19.963Z,13.01
2019-02-12T12:00:52.745Z,13.03
2019-02-12T12:03:21.170Z,13.05
2019-02-12T12:05:49.234Z,13.03
2019-02-12T12:08:17.321Z,12.99
2019-02-12T12:10:45.373Z,12.93
2019-02-12T12:13:13.414Z,12.79
2019-02-12T12:15:41.479Z,12.67
2019-02-12T12:18:09.603Z,12.68
2019-02-12T12:20:37.641Z,12.71
2019-02-12T12:23:05.687Z,12.74
2019-02-12T12:25:33.872Z,12.80
2019-02-12T12:28:01.944Z,12.75
2019-02-12T12:30:29.999Z,12.61
2019-02-12T12:32:58.048Z,12.53
2019-02-12T12:35:26.111Z,12.52
2019-02-12T12:37:54.179Z,12.45
2019-02-12T12:40:22.534Z,12.38
2019-02-12T12:42:50.588Z,12.42
2019-02-12T12:45:18.781Z,12.44
2019-02-12T12:47:46.838Z,12.45
2019-02-12T12:50:14.918Z,12.33
2019-02-12T12:52:43.054Z,12.22
2019-02-12T12:55:11.254Z,12.28
2019-02-12T12:57:42.020Z,12.44
2019-02-12T13:00:10.917Z,12.63
2019-02-12T13:02:40.549Z,12.84
2019-02-12T13:05:08.952Z,13.05
2019-02-12T13:07:38.070Z,13.35
2019-02-12T13:10:09.352Z,13.74
2019-02-12T13:12:47.311Z,14.15
2019-02-12T13:15:17.714Z,14.72
2019-02-12T13:17:45.777Z,15.37
2019-02-12T13:20:22.850Z,15.90
2019-02-12T13:22:51.287Z,16.38
2019-02-12T13:25:19.893Z,16.86
2019-02-12T13:27:47.981Z,17.25
2019-02-12T13:30:16.167Z,17.46
2019-02-12T13:32:44.335Z,17.45
2019-02-12T13:35:12.818Z,17.41
2019-02-12T13:37:40.905Z,17.38
2019-02-12T13:40:10.335Z,17.38
2019-02-12T13:42:38.603Z,17.36
2019-02-12T13:45:09.615Z,17.27
2019-02-12T13:47:39.447Z,17.13
2019-02-12T13:50:08.512Z,16.94
2019-02-12T13:52:36.629Z,16.79
2019-02-12T13:55:06.122Z,16.56
2019-02-12T13:57:34.392Z,16.31
2019-02-12T14:00:05.138Z,16.08
2019-02-12T14:02:34.846Z,15.94
2019-02-12T14:05:03.951Z,15.74
2019-02-12T14:07:32.369Z,15.54
2019-02-12T14:10:01.768Z,15.18
2019-02-12T14:12:32.005Z,14.85
2019-02-12T14:15:00.259Z,14.69
2019-02-12T14:17:28.456Z,14.58
2019-02-12T14:19:56.860Z,14.37
2019-02-12T14:22:24.974Z,14.27
2019-02-12T14:24:53.130Z,14.20
2019-02-12T14:27:22.370Z,14.18
2019-02-12T14:29:50.516Z,14.16
2019-02-12T14:32:18.616Z,14.13
2019-02-12T14:34:46.647Z,14.07
2019-02-12T14:37:14.750Z,14.03
2019-02-12T14:39:42.820Z,13.99
2019-02-12T14:42:10.905Z,13.96
2019-02-12T14:44:38.966Z,13.92
2019-02-12T14:47:07.166Z,13.87
2019-02-12T14:49:35.226Z,13.73
2019-02-12T14:52:03.648Z,13.62
2019-02-12T14:54:31.697Z,13.52
2019-02-12T14:56:59.795Z,13.43
2019-02-12T14:59:27.862Z,13.36
2019-02-12T15:01:56.107Z,13.25
2019-02-12T15:04:24.163Z,13.17
2019-02-12T15:06:52.643Z,13.13
2019-02-12T15:09:21.618Z,13.10
2019-02-12T15:11:50.304Z,13.05
2019-02-12T15:14:18.463Z,13.02
2019-02-12T15:16:46.572Z,13.01
2019-02-12T15:19:16.521Z,12.94
2019-02-12T15:21:44.664Z,12.82
2019-02-12T15:24:12.850Z,12.74
2019-02-12T15:26:41.516Z,12.66
2019-02-12T15:29:10.098Z,12.60
2019-02-12T15:31:39.710Z,12.48
2019-02-12T15:34:07.926Z,12.38
2019-02-12T15:36:36.573Z,12.32
2019-02-12T15:39:06.450Z,12.24
2019-02-12T15:41:34.770Z,12.19
2019-02-12T15:44:03.368Z,12.09
2019-02-12T15:46:31.538Z,12.02
2019-02-12T15:48:59.618Z,11.94
2019-02-12T15:51:27.769Z,11.89
2019-02-12T15:53:55.976Z,11.86
2019-02-12T15:56:24.162Z,11.82
2019-02-12T15:58:53.682Z,11.75
2019-02-12T16:01:21.993Z,11.67
2019-02-12T16:03:50.241Z,11.57
2019-02-12T16:06:19.289Z,11.49
2019-02-12T16:08:48.792Z,11.43
2019-02-12T16:11:19.068Z,11.40
2019-02-12T16:13:47.919Z,11.38
2019-02-12T16:16:16.328Z,11.37
2019-02-12T16:18:46.021Z,11.35
2019-02-12T16:21:14.858Z,11.31
2019-02-12T16:23:43.322Z,11.21
2019-02-12T16:26:11.477Z,11.09
2019-02-12T16:28:40.157Z,10.98
2019-02-12T16:31:08.234Z,10.89
2019-02-12T16:33:36.333Z,10.85
2019-02-12T16:36:04.426Z,10.81
2019-02-12T16:38:32.518Z,10.80
2019-02-12T16:41:01.064Z,10.77
2019-02-12T16:43:29.206Z,10.71
2019-02-12T16:46:05.400Z,10.65
2019-02-12T16:48:33.506Z,10.60
2019-02-12T16:51:01.540Z,10.53
2019-02-12T16:53:29.744Z,10.46
2019-02-12T16:55:57.895Z,10.38
2019-02-12T16:58:25.977Z,10.29
2019-02-12T17:00:54.078Z,10.22
2019-02-12T17:03:22.202Z,10.15
2019-02-12T17:05:50.303Z,10.07
2019-02-12T17:08:18.459Z,10.01
2019-02-12T17:10:46.707Z,9.94
2019-02-12T17:13:14.863Z,9.87
2019-02-12T17:15:43.021Z,9.79
2019-02-12T17:18:12.244Z,9.71
2019-02-12T17:20:40.343Z,9.62
2019-02-12T17:23:08.476Z,9.53
2019-02-12T17:25:36.654Z,9.43
2019-02-12T17:28:04.933Z,9.33
2019-02-12T17:30:33.084Z,9.22
2019-02-12T17:33:01.272Z,9.14
2019-02-12T17:35:29.475Z,9.07
2019-02-12T17:37:57.639Z,8.99
2019-02-12T17:40:25.762Z,8.92
2019-02-12T17:42:55.555Z,8.80
2019-02-12T17:45:23.827Z,8.66
2019-02-12T17:47:52.007Z,8.53
2019-02-12T17:50:20.488Z,8.41
2019-02-12T17:52:48.757Z,8.33
2019-02-12T17:55:19.660Z,8.26
2019-02-12T17:57:48.855Z,8.18
2019-02-12T18:00:19.557Z,8.09
2019-02-12T18:02:47.779Z,8.01
2019-02-12T18:05:15.923Z,7.90
2019-02-12T18:07:44.208Z,7.83
2019-02-12T18:10:12.625Z,7.76
2019-02-12T18:12:40.790Z,7.69
2019-02-12T18:15:09.946Z,7.62
2019-02-12T18:17:38.469Z,7.55
2019-02-12T18:20:07.834Z,7.48
2019-02-12T18:22:35.969Z,7.42
2019-02-12T18:25:07.570Z,7.35
2019-02-12T18:27:35.634Z,7.29
2019-02-12T18:30:05.901Z,7.25
2019-02-12T18:32:34.347Z,7.22
2019-02-12T18:35:03.248Z,7.17
2019-02-12T18:37:31.330Z,7.11
2019-02-12T18:39:59.432Z,7.06
2019-02-12T18:42:27.632Z,7.02
2019-02-12T18:44:55.733Z,6.96
2019-02-12T18:47:24.046Z,6.91
2019-02-12T18:49:52.135Z,6.87
2019-02-12T18:52:23.009Z,6.81
2019-02-12T18:54:51.376Z,6.78
2019-02-12T18:57:20.352Z,6.73
2019-02-12T18:59:48.692Z,6.70
2019-02-12T19:02:17.341Z,6.66
2019-02-12T19:04:45.719Z,6.62
2019-02-12T19:07:13.840Z,6.59
2019-02-12T19:09:43.530Z,6.55
2019-02-12T19:12:11.688Z,6.47
2019-02-12T19:14:39.903Z,6.42
2019-02-12T19:17:08.104Z,6.37
2019-02-12T19:19:36.349Z,6.32
2019-02-12T19:22:04.528Z,6.23
2019-02-12T19:24:32.807Z,6.21
2019-02-12T19:27:01.396Z,6.16
2019-02-12T19:29:29.473Z,6.11
2019-02-12T19:31:59.322Z,6.07
2019-02-12T19:34:27.636Z,6.04
2019-02-12T19:36:56.029Z,6.01
2019-02-12T19:39:25.362Z,5.98
2019-02-12T19:41:53.372Z,5.95
2019-02-12T19:44:21.629Z,5.94
2019-02-12T19:46:49.726Z,5.88
2019-02-12T19:49:18.151Z,5.84
2019-02-12T19:51:46.316Z,5.82
2019-02-12T19:54:15.170Z,5.80
2019-02-12T19:56:43.959Z,5.78
2019-02-12T19:59:12.103Z,5.74
2019-02-12T20:01:40.621Z,5.72
2019-02-12T20:04:08.746Z,5.69
2019-02-12T20:06:38.039Z,5.67
2019-02-12T20:09:13.347Z,5.65
2019-02-12T20:11:41.676Z,5.61
2019-02-12T20:14:09.733Z,5.56
2019-02-12T20:16:38.411Z,5.52
2019-02-12T20:19:06.760Z,5.48
2019-02-12T20:21:34.954Z,5.45
2019-02-12T20:24:04.871Z,5.43
2019-02-12T20:26:33.145Z,5.41
2019-02-12T20:29:03.289Z,5.40
2019-02-12T20:31:32.023Z,5.35
2019-02-12T20:34:00.203Z,5.32
2019-02-12T20:36:28.332Z,5.30
2019-02-12T20:38:56.503Z,5.29
2019-02-12T20:41:24.814Z,5.27
2019-02-12T20:43:52.869Z,5.25
2019-02-12T20:46:21.174Z,5.23
2019-02-12T20:48:49.343Z,5.20
2019-02-12T20:51:17.460Z,5.17
2019-02-12T20:53:46.609Z,5.16
2019-02-12T20:56:14.710Z,5.13
2019-02-12T20:58:42.759Z,5.08
2019-02-12T21:01:11.097Z,5.05
2019-02-12T21:03:39.509Z,5.03
2019-02-12T21:06:09.278Z,5.01
2019-02-12T21:08:37.528Z,4.98
2019-02-12T21:11:06.889Z,4.95
2019-02-12T21:13:35.046Z,4.92
2019-02-12T21:16:03.247Z,4.89
2019-02-12T21:18:31.405Z,4.87
2019-02-12T21:21:01.302Z,4.83
2019-02-12T21:23:29.671Z,4.80
2019-02-12T21:25:57.953Z,4.76
2019-02-12T21:28:26.118Z,4.71
2019-02-12T21:30:54.237Z,4.69
2019-02-12T21:33:22.460Z,4.65
2019-02-12T21:35:51.801Z,4.64
2019-02-12T21:38:20.401Z,4.65
2019-02-12T21:40:48.554Z,4.65
2019-02-12T21:43:16.937Z,4.63
2019-02-12T21:45:45.162Z,4.60
2019-02-12T21:48:13.684Z,4.58
2019-02-12T21:50:42.953Z,4.55
2019-02-12T21:53:11.400Z,4.52
2019-02-12T21:55:39.536Z,4.47
2019-02-12T21:58:09.231Z,4.47
2019-02-12T22:00:37.327Z,4.44
2019-02-12T22:03:05.538Z,4.42
2019-02-12T22:05:33.623Z,4.39
2019-02-12T22:08:01.823Z,4.37
2019-02-12T22:10:30.052Z,4.37
2019-02-12T22:12:58.344Z,4.35
2019-02-12T22:15:26.442Z,4.32
2019-02-12T22:17:54.520Z,4.29
2019-02-12T22:20:22.961Z,4.24
2019-02-12T22:22:51.122Z,4.21
2019-02-12T22:25:19.391Z,4.15
2019-02-12T22:27:47.653Z,4.11
2019-02-12T22:30:18.087Z,4.08
2019-02-12T22:32:47.599Z,4.06
2019-02-12T22:35:15.667Z,4.03
2019-02-12T22:37:43.772Z,3.99
2019-02-12T22:40:12.836Z,3.96
2019-02-12T22:42:40.928Z,3.94
2019-02-12T22:45:12.920Z,3.93
2019-02-12T22:47:41.102Z,3.93
2019-02-12T22:50:11.939Z,3.93
2019-02-12T22:52:40.469Z,3.92
2019-02-12T22:55:08.654Z,3.90
2019-02-12T22:57:36.742Z,3.87
2019-02-12T23:00:30.452Z,3.83
2019-02-12T23:03:00.448Z,3.80
2019-02-12T23:05:28.563Z,3.78
2019-02-12T23:07:58.261Z,3.75
2019-02-12T23:10:26.305Z,3.75
2019-02-12T23:12:56.011Z,3.75
2019-02-12T23:15:25.663Z,3.75
2019-02-12T23:17:53.755Z,3.74
2019-02-12T23:20:21.817Z,3.73
2019-02-12T23:22:51.579Z,3.72
2019-02-12T23:25:19.650Z,3.71
2019-02-12T23:27:47.877Z,3.69
2019-02-12T23:30:16.026Z,3.70
2019-02-12T23:32:44.415Z,3.67
2019-02-12T23:35:13.522Z,3.68
2019-02-12T23:37:41.701Z,3.65
2019-02-12T23:40:09.777Z,3.65
2019-02-12T23:42:37.961Z,3.63
2019-02-12T23:45:07.058Z,3.61
2019-02-12T23:47:35.134Z,3.55
2019-02-12T23:50:03.632Z,3.51
2019-02-12T23:52:31.728Z,3.48
2019-02-12T23:54:59.905Z,3.46
2019-02-12T23:57:29.360Z,3.44
2019-02-12T23:59:57.424Z,3.41
